Flight Briefing for CPX212

Departure Arrival
March Air Reserve Base (KRIV)
Click to view FAA NOTAMS
Sacramento International Airport (KSMF)
Click to view FAA NOTAMS
Departure Time Arrival Time
N/A N/A
Aircraft Distance
B767-300BDSF 362nm
Departure METAR Arrival METAR
KRIV 221158Z AUTO 00000KT 10SM OVC045 08/08 A3012 RMK AO2 SLP200 70018 T00810081 10081 20058 57006 KSMF 221153Z 14009KT 10SM FEW060 08/07 A3013 RMK AO2 SLP201 7//// T00830067 10111 20072 56002
Suggested Route
SLI J78 LAX J5 LANDO NURAY SUUTR2


View recent IFR Routes data
Notes



Charts and Procedures

Charts for KRIV
No chart available
Charts for KSMF
No chart available

Windy.com Weather Map